createdAt,value
2018-07-07T00:00:44.053Z,96
2018-07-07T00:01:44.093Z,96
2018-07-07T00:02:44.123Z,96
2018-07-07T00:03:44.051Z,96
2018-07-07T00:04:44.131Z,96
2018-07-07T00:05:44.081Z,96
2018-07-07T00:06:44.163Z,96
2018-07-07T00:07:44.052Z,96
2018-07-07T00:08:44.106Z,96
2018-07-07T00:09:44.726Z,95
2018-07-07T00:10:44.090Z,95
2018-07-07T00:11:44.198Z,95
2018-07-07T00:12:44.020Z,95
2018-07-07T00:13:44.009Z,95
2018-07-07T00:14:44.144Z,95
2018-07-07T00:15:44.111Z,95
2018-07-07T00:16:44.035Z,95
2018-07-07T00:17:44.215Z,95
2018-07-07T00:18:44.101Z,95
2018-07-07T00:30:31.674Z,95
2018-07-07T00:30:39.792Z,95
2018-07-07T00:31:39.927Z,96
2018-07-07T00:32:39.773Z,96
2018-07-07T00:33:39.899Z,96
2018-07-07T00:34:39.789Z,96
2018-07-07T00:35:39.774Z,96
2018-07-07T00:36:39.829Z,96
2018-07-07T00:37:39.780Z,96
2018-07-07T00:38:39.747Z,96
2018-07-07T00:39:39.827Z,96
2018-07-07T00:40:39.884Z,96
2018-07-07T00:41:39.757Z,96
2018-07-07T00:42:39.791Z,96
2018-07-07T00:43:39.706Z,96
2018-07-07T00:44:39.765Z,96
2018-07-07T00:45:39.815Z,96
2018-07-07T00:46:39.883Z,96
2018-07-07T00:47:39.751Z,96
2018-07-07T00:48:39.708Z,96
2018-07-07T00:49:39.786Z,96
2018-07-07T00:50:39.807Z,96
2018-07-07T00:51:39.854Z,96
2018-07-07T00:52:39.861Z,96
2018-07-07T00:53:39.851Z,96
2018-07-07T00:54:39.927Z,96
2018-07-07T00:55:39.962Z,96
2018-07-07T00:56:39.916Z,96
2018-07-07T00:57:39.884Z,96
2018-07-07T00:58:40.411Z,96
2018-07-07T00:59:39.865Z,96
2018-07-07T01:00:39.913Z,96
2018-07-07T01:01:39.901Z,96
2018-07-07T01:02:39.866Z,96
2018-07-07T01:03:40.483Z,96
2018-07-07T01:04:39.816Z,96
2018-07-07T01:05:39.832Z,96
2018-07-07T01:06:40.024Z,96
2018-07-07T01:07:39.867Z,96
2018-07-07T01:08:39.953Z,96
2018-07-07T01:09:39.868Z,96
2018-07-07T01:10:42.104Z,97
2018-07-07T01:11:39.738Z,97
2018-07-07T01:12:39.791Z,97
2018-07-07T01:13:39.747Z,96
2018-07-07T01:14:44.039Z,96
2018-07-07T01:15:39.805Z,97
2018-07-07T01:16:39.738Z,97
2018-07-07T01:17:39.916Z,97
2018-07-07T01:18:39.780Z,97
2018-07-07T01:19:39.815Z,97
2018-07-07T01:21:08.314Z,96
2018-07-07T01:21:39.774Z,96
2018-07-07T01:22:39.781Z,96
2018-07-07T01:23:39.781Z,97
2018-07-07T01:24:39.730Z,97
2018-07-07T01:25:39.891Z,97
2018-07-07T01:26:39.974Z,97
2018-07-07T01:27:40.416Z,97
2018-07-07T01:28:39.830Z,97
2018-07-07T01:29:39.941Z,97
2018-07-07T01:30:39.760Z,97
2018-07-07T01:32:52.044Z,97
2018-07-07T01:33:52.192Z,97
2018-07-07T01:34:52.086Z,97
2018-07-07T01:35:52.250Z,97
2018-07-07T01:36:52.085Z,97
2018-07-07T01:37:52.258Z,97
2018-07-07T01:38:52.185Z,97
2018-07-07T01:39:52.146Z,97
2018-07-07T01:40:52.161Z,97
2018-07-07T01:41:52.191Z,97
2018-07-07T01:43:08.252Z,97
2018-07-07T01:43:52.058Z,97
2018-07-07T01:44:52.081Z,97
2018-07-07T01:45:52.085Z,97
2018-07-07T01:46:52.148Z,97
2018-07-07T01:47:52.065Z,97
2018-07-07T01:48:52.127Z,97
2018-07-07T01:49:52.157Z,97
2018-07-07T01:50:52.182Z,97
2018-07-07T01:51:52.115Z,97
2018-07-07T01:52:52.782Z,97
2018-07-07T01:53:52.199Z,97
2018-07-07T01:54:52.304Z,97
2018-07-07T01:55:52.146Z,97
2018-07-07T01:56:52.144Z,97
2018-07-07T01:57:52.134Z,97
2018-07-07T01:58:52.251Z,97
2018-07-07T01:59:52.119Z,97
2018-07-07T02:00:52.195Z,97
2018-07-07T02:01:52.172Z,97
2018-07-07T02:03:05.944Z,97
2018-07-07T02:03:52.197Z,97
2018-07-07T02:04:52.174Z,97
2018-07-07T02:05:52.123Z,97
2018-07-07T02:06:52.235Z,97
2018-07-07T02:07:52.209Z,97
2018-07-07T02:08:52.223Z,97
2018-07-07T02:09:52.122Z,97
2018-07-07T02:10:52.177Z,97
2018-07-07T02:11:52.128Z,97
2018-07-07T02:12:52.172Z,97
2018-07-07T02:15:05.527Z,97
2018-07-07T02:16:05.530Z,97
2018-07-07T02:17:05.574Z,97
2018-07-07T02:18:05.520Z,97
2018-07-07T02:19:05.474Z,97
2018-07-07T02:20:05.546Z,97
2018-07-07T02:21:05.591Z,97
2018-07-07T02:22:05.511Z,97
2018-07-07T02:23:05.559Z,97
2018-07-07T02:24:05.480Z,97
2018-07-07T02:36:09.415Z,97
2018-07-07T02:37:09.380Z,97
2018-07-07T02:38:09.517Z,97
2018-07-07T02:39:09.584Z,97
2018-07-07T02:40:09.421Z,97
2018-07-07T02:41:09.402Z,97
2018-07-07T02:42:09.396Z,97
2018-07-07T02:43:09.381Z,97
2018-07-07T02:44:09.446Z,97
2018-07-07T02:45:09.415Z,97
2018-07-07T02:51:04.632Z,97
2018-07-07T02:51:12.614Z,97
2018-07-07T02:52:12.644Z,97
2018-07-07T02:53:12.650Z,97
2018-07-07T02:54:12.626Z,97
2018-07-07T02:55:12.672Z,97
2018-07-07T02:56:12.655Z,97
2018-07-07T02:57:12.679Z,97
2018-07-07T02:58:12.598Z,97
2018-07-07T02:59:12.653Z,97
2018-07-07T03:00:16.245Z,97
2018-07-07T03:01:12.629Z,97
2018-07-07T03:02:12.632Z,97
2018-07-07T03:03:12.741Z,97
2018-07-07T03:04:12.610Z,97
2018-07-07T03:05:12.702Z,97
2018-07-07T03:06:12.710Z,97
2018-07-07T03:07:12.628Z,97
2018-07-07T03:08:12.649Z,97
2018-07-07T03:09:12.604Z,97
2018-07-07T03:10:13.664Z,97
2018-07-07T03:11:12.645Z,97
2018-07-07T03:12:12.632Z,97
2018-07-07T03:13:12.643Z,97
2018-07-07T03:14:12.647Z,97
2018-07-07T03:15:12.728Z,97
2018-07-07T03:16:12.856Z,97
2018-07-07T03:17:12.615Z,97
2018-07-07T03:18:12.623Z,98
2018-07-07T03:19:12.636Z,98
2018-07-07T03:20:13.401Z,97
2018-07-07T03:21:12.582Z,97
2018-07-07T03:22:12.679Z,97
2018-07-07T03:23:12.660Z,97
2018-07-07T03:24:12.612Z,97
2018-07-07T03:25:12.662Z,97
2018-07-07T03:26:12.644Z,97
2018-07-07T03:27:33.430Z,97
2018-07-07T03:28:12.685Z,97
2018-07-07T03:29:12.788Z,97
2018-07-07T03:30:13.310Z,97
2018-07-07T03:31:12.713Z,97
2018-07-07T03:32:12.924Z,97
2018-07-07T03:33:13.111Z,97
2018-07-07T03:34:12.667Z,97
2018-07-07T03:35:12.672Z,97
2018-07-07T03:36:12.739Z,98
2018-07-07T03:37:12.710Z,98
2018-07-07T03:38:12.991Z,98
2018-07-07T03:39:21.281Z,98
2018-07-07T03:40:51.548Z,98
2018-07-07T03:41:12.837Z,98
2018-07-07T03:42:13.237Z,98
2018-07-07T03:43:12.688Z,98
2018-07-07T03:44:12.786Z,98
2018-07-07T03:45:12.714Z,98
2018-07-07T03:46:12.703Z,98
2018-07-07T03:47:12.795Z,98
2018-07-07T03:48:13.393Z,97
2018-07-07T03:49:12.764Z,97
2018-07-07T03:50:12.740Z,97
2018-07-07T03:51:12.784Z,97
2018-07-07T03:52:12.742Z,97
2018-07-07T03:53:12.932Z,97
2018-07-07T03:54:12.704Z,97
2018-07-07T03:55:12.730Z,97
2018-07-07T03:56:12.719Z,98
2018-07-07T03:57:12.703Z,98
2018-07-07T03:58:12.695Z,98
2018-07-07T03:59:14.890Z,98
2018-07-07T04:00:12.697Z,98
2018-07-07T04:01:12.793Z,98
2018-07-07T04:02:12.746Z,98
2018-07-07T04:03:12.695Z,98
2018-07-07T04:04:12.696Z,98
2018-07-07T04:05:12.751Z,98
2018-07-07T04:06:12.767Z,98
2018-07-07T04:07:12.906Z,98
2018-07-07T04:08:12.844Z,98
2018-07-07T04:09:13.846Z,98
2018-07-07T04:10:12.825Z,98
2018-07-07T04:11:12.785Z,98
2018-07-07T04:12:12.757Z,98
2018-07-07T04:13:12.893Z,98
2018-07-07T04:14:23.311Z,98
2018-07-07T04:15:21.987Z,98
2018-07-07T04:16:24.472Z,98
2018-07-07T04:17:13.480Z,98
2018-07-07T04:18:12.742Z,98
2018-07-07T04:19:12.807Z,98
2018-07-07T04:20:12.910Z,98
2018-07-07T04:21:12.786Z,98
2018-07-07T04:22:12.943Z,98
2018-07-07T04:23:12.814Z,98
2018-07-07T04:24:12.848Z,98
2018-07-07T04:25:12.802Z,98
2018-07-07T04:26:12.754Z,98
2018-07-07T04:27:12.856Z,98
2018-07-07T04:28:12.792Z,98
2018-07-07T04:29:12.825Z,98
2018-07-07T04:30:12.927Z,98
2018-07-07T04:31:12.800Z,98
2018-07-07T04:32:12.798Z,98
2018-07-07T04:33:12.851Z,98
2018-07-07T04:34:12.806Z,98
2018-07-07T04:35:13.190Z,98
2018-07-07T04:36:12.756Z,98
2018-07-07T04:37:12.787Z,98
2018-07-07T04:38:13.696Z,98
2018-07-07T04:39:13.053Z,98
2018-07-07T04:40:12.743Z,98
2018-07-07T04:41:12.798Z,98
2018-07-07T04:42:12.875Z,98
2018-07-07T04:43:12.807Z,98
2018-07-07T04:44:12.708Z,98
2018-07-07T04:45:12.735Z,98
2018-07-07T04:46:12.739Z,98
2018-07-07T04:47:12.825Z,98
2018-07-07T04:48:12.827Z,98
2018-07-07T04:49:12.764Z,98
2018-07-07T04:50:12.809Z,98
2018-07-07T04:51:13.455Z,98
2018-07-07T04:52:12.774Z,97
2018-07-07T04:53:12.951Z,97
2018-07-07T04:54:12.763Z,98
2018-07-07T04:55:12.807Z,98
2018-07-07T04:56:12.778Z,98
2018-07-07T04:57:12.805Z,97
2018-07-07T04:58:13.489Z,97
2018-07-07T04:59:12.867Z,97
2018-07-07T05:00:12.823Z,97
2018-07-07T05:01:12.922Z,97
2018-07-07T05:02:12.937Z,98
2018-07-07T05:03:12.834Z,98
2018-07-07T05:04:12.930Z,98
2018-07-07T05:05:12.897Z,98
2018-07-07T05:06:12.941Z,98
2018-07-07T05:07:13.057Z,98
2018-07-07T05:08:12.941Z,98
2018-07-07T05:09:12.910Z,98
2018-07-07T05:10:12.994Z,98
2018-07-07T05:11:12.837Z,98
2018-07-07T05:12:12.902Z,98
2018-07-07T05:13:12.972Z,98
2018-07-07T05:14:12.953Z,98
2018-07-07T05:15:12.937Z,98
2018-07-07T05:16:12.929Z,98
2018-07-07T05:17:13.040Z,97
2018-07-07T05:18:14.012Z,97
2018-07-07T05:19:12.975Z,97
2018-07-07T05:21:13.630Z,98
2018-07-07T05:23:12.959Z,97
2018-07-07T05:24:12.896Z,97
2018-07-07T05:25:12.823Z,97
2018-07-07T05:26:12.888Z,97
2018-07-07T05:27:13.920Z,97
2018-07-07T05:28:12.864Z,97
2018-07-07T05:29:13.080Z,97
2018-07-07T05:30:12.905Z,97
2018-07-07T05:31:12.849Z,97
2018-07-07T05:32:12.903Z,97
2018-07-07T05:33:13.037Z,97
2018-07-07T05:34:12.923Z,97
2018-07-07T05:35:12.975Z,97
2018-07-07T05:36:13.146Z,97
2018-07-07T05:37:13.582Z,97
2018-07-07T05:38:13.105Z,97
2018-07-07T05:39:13.061Z,97
2018-07-07T05:40:13.046Z,98
2018-07-07T05:41:12.913Z,98
2018-07-07T05:42:13.591Z,98
2018-07-07T05:43:12.910Z,98
2018-07-07T05:44:13.241Z,98
2018-07-07T05:45:12.969Z,97
2018-07-07T05:46:13.051Z,97
2018-07-07T05:47:13.038Z,97
2018-07-07T05:48:13.106Z,97
2018-07-07T05:49:13.030Z,97
2018-07-07T05:50:13.879Z,97
2018-07-07T05:51:12.969Z,97
2018-07-07T05:52:12.978Z,97
2018-07-07T05:53:13.097Z,97
2018-07-07T05:54:13.027Z,97
2018-07-07T05:55:12.997Z,96
2018-07-07T05:56:13.034Z,96
2018-07-07T05:57:12.979Z,96
2018-07-07T05:58:12.977Z,97
2018-07-07T05:59:13.047Z,97
2018-07-07T06:00:13.008Z,96
2018-07-07T06:01:13.059Z,96
2018-07-07T06:02:12.965Z,96
2018-07-07T06:03:12.952Z,96
2018-07-07T06:04:13.000Z,96
2018-07-07T06:05:12.904Z,96
2018-07-07T06:06:12.936Z,96
2018-07-07T06:07:12.996Z,96
2018-07-07T06:08:13.315Z,96
2018-07-07T06:09:13.051Z,96
2018-07-07T06:10:13.129Z,96
2018-07-07T06:11:13.031Z,96
2018-07-07T06:12:12.980Z,96
2018-07-07T06:13:13.028Z,94
2018-07-07T06:14:13.009Z,94
2018-07-07T06:15:13.752Z,94
2018-07-07T06:16:13.185Z,94
2018-07-07T06:17:13.007Z,94
2018-07-07T06:18:13.105Z,93
2018-07-07T06:19:13.096Z,93
2018-07-07T06:20:12.983Z,93
2018-07-07T06:21:13.231Z,92
2018-07-07T06:22:13.099Z,92
2018-07-07T06:23:13.030Z,90
2018-07-07T06:24:13.065Z,90
2018-07-07T06:25:15.172Z,90
2018-07-07T06:26:12.996Z,90
2018-07-07T06:27:13.001Z,90
2018-07-07T06:28:13.074Z,88
2018-07-07T06:29:13.103Z,88
2018-07-07T06:30:12.962Z,88
2018-07-07T06:31:13.020Z,87
2018-07-07T06:32:14.524Z,87
2018-07-07T06:33:13.132Z,88
2018-07-07T06:34:13.120Z,88
2018-07-07T06:35:13.133Z,88
2018-07-07T06:36:13.973Z,86
2018-07-07T06:37:13.213Z,86
2018-07-07T06:38:13.601Z,86
2018-07-07T06:39:13.106Z,85
2018-07-07T06:40:13.058Z,85
2018-07-07T06:41:13.072Z,85
2018-07-07T06:42:13.302Z,85
2018-07-07T06:43:13.077Z,85
2018-07-07T06:44:13.178Z,82
2018-07-07T06:45:13.160Z,82
2018-07-07T06:46:13.172Z,81
2018-07-07T06:47:13.197Z,81
2018-07-07T06:48:13.460Z,81
2018-07-07T06:49:13.252Z,80
2018-07-07T06:50:13.213Z,80
2018-07-07T06:51:13.148Z,80
2018-07-07T06:52:15.249Z,80
2018-07-07T06:53:13.177Z,80
2018-07-07T06:54:13.166Z,80
2018-07-07T06:55:13.144Z,80
2018-07-07T06:56:13.152Z,77
2018-07-07T06:57:13.215Z,77
2018-07-07T06:58:13.314Z,77
2018-07-07T06:59:13.220Z,77
2018-07-07T07:00:13.255Z,77
2018-07-07T07:01:13.247Z,71
2018-07-07T07:07:06.951Z,71
2018-07-07T07:07:20.269Z,71
2018-07-07T07:08:21.132Z,68
2018-07-07T07:09:21.208Z,67
2018-07-07T07:10:21.148Z,67
2018-07-07T07:11:21.262Z,65
2018-07-07T07:12:21.202Z,65
2018-07-07T07:13:21.137Z,65
2018-07-07T07:14:21.257Z,63
2018-07-07T07:15:21.159Z,63
2018-07-07T07:16:21.153Z,63
2018-07-07T07:17:21.238Z,64
2018-07-07T07:18:21.157Z,64
2018-07-07T07:19:21.187Z,63
2018-07-07T07:20:21.230Z,63
2018-07-07T07:21:21.211Z,63
2018-07-07T07:22:21.110Z,62
2018-07-07T07:23:21.179Z,62
2018-07-07T07:24:21.182Z,64
2018-07-07T07:25:21.817Z,64
2018-07-07T07:26:21.315Z,64
2018-07-07T07:27:21.212Z,63
2018-07-07T07:28:21.278Z,63
2018-07-07T07:29:21.535Z,63
2018-07-07T07:30:21.305Z,63
2018-07-07T07:31:21.409Z,63
2018-07-07T07:32:22.361Z,63
2018-07-07T07:33:21.255Z,63
2018-07-07T07:34:21.388Z,61
2018-07-07T07:35:21.737Z,61
2018-07-07T07:36:21.173Z,61
2018-07-07T07:37:21.254Z,61
2018-07-07T07:38:21.309Z,61
2018-07-07T07:39:21.268Z,62
2018-07-07T07:40:21.408Z,62
2018-07-07T07:41:21.384Z,62
2018-07-07T07:42:21.442Z,59
2018-07-07T07:43:21.258Z,59
2018-07-07T07:44:21.233Z,59
2018-07-07T07:45:31.389Z,59
2018-07-07T07:46:21.364Z,59
2018-07-07T07:47:21.172Z,57
2018-07-07T07:48:21.394Z,57
2018-07-07T07:49:21.304Z,57
2018-07-07T07:50:22.719Z,56
2018-07-07T07:51:21.739Z,56
2018-07-07T07:52:21.909Z,56
2018-07-07T07:53:21.883Z,56
2018-07-07T07:54:21.567Z,56
2018-07-07T07:55:21.426Z,55
2018-07-07T07:56:21.418Z,55
2018-07-07T07:57:21.385Z,54
2018-07-07T07:58:21.482Z,54
2018-07-07T07:59:21.647Z,54
2018-07-07T08:00:21.856Z,55
2018-07-07T08:01:24.696Z,55
2018-07-07T08:02:21.656Z,54
2018-07-07T08:03:22.105Z,54
2018-07-07T08:04:21.459Z,54
2018-07-07T08:05:21.596Z,54
2018-07-07T08:06:21.921Z,54
2018-07-07T08:07:21.445Z,55
2018-07-07T08:08:21.579Z,55
2018-07-07T08:09:22.123Z,55
2018-07-07T08:10:21.492Z,55
2018-07-07T08:11:21.515Z,55
2018-07-07T08:12:21.652Z,55
2018-07-07T08:14:21.707Z,55
2018-07-07T08:15:21.858Z,57
2018-07-07T08:16:21.668Z,57
2018-07-07T08:17:22.491Z,57
2018-07-07T08:18:21.609Z,58
2018-07-07T08:19:22.140Z,58
2018-07-07T08:20:21.510Z,56
2018-07-07T08:21:21.532Z,56
2018-07-07T08:22:21.374Z,56
2018-07-07T08:23:21.329Z,56
2018-07-07T08:24:22.303Z,56
2018-07-07T08:25:22.539Z,56
2018-07-07T08:26:21.647Z,56
2018-07-07T08:27:21.472Z,56
2018-07-07T08:28:21.823Z,56
2018-07-07T08:29:21.496Z,56
2018-07-07T08:30:21.735Z,56
2018-07-07T08:31:21.610Z,56
2018-07-07T08:32:21.519Z,56
2018-07-07T08:33:21.699Z,55
2018-07-07T08:34:21.674Z,55
2018-07-07T08:35:22.074Z,57
2018-07-07T08:36:21.777Z,57
2018-07-07T08:37:21.553Z,57
2018-07-07T08:38:22.222Z,57
2018-07-07T08:39:21.551Z,57
2018-07-07T08:40:22.995Z,57
2018-07-07T08:41:26.443Z,57
2018-07-07T08:42:22.561Z,57
2018-07-07T08:43:22.789Z,57
2018-07-07T08:44:22.430Z,57
2018-07-07T08:45:23.137Z,57
2018-07-07T08:46:22.576Z,57
2018-07-07T08:48:22.648Z,59
2018-07-07T08:49:23.814Z,59
2018-07-07T08:50:31.823Z,59
2018-07-07T08:51:22.370Z,57
2018-07-07T08:52:22.159Z,57
2018-07-07T08:53:21.579Z,57
2018-07-07T08:54:21.748Z,57
2018-07-07T08:55:24.298Z,57
2018-07-07T08:56:21.515Z,55
2018-07-07T08:57:21.638Z,55
2018-07-07T08:58:21.589Z,55
2018-07-07T08:59:21.540Z,55
2018-07-07T09:00:21.474Z,55
2018-07-07T09:01:21.590Z,55
2018-07-07T09:02:21.494Z,55
2018-07-07T09:03:21.497Z,56
2018-07-07T09:04:26.446Z,56
2018-07-07T09:05:26.217Z,56
2018-07-07T09:06:26.967Z,58
2018-07-07T09:07:22.313Z,58
2018-07-07T09:09:23.041Z,58
2018-07-07T09:10:26.593Z,58
2018-07-07T09:11:23.323Z,58
2018-07-07T09:12:22.267Z,58
2018-07-07T09:13:21.774Z,57
2018-07-07T09:14:24.228Z,57
2018-07-07T09:15:23.590Z,57
2018-07-07T09:17:23.553Z,59
2018-07-07T09:18:25.654Z,59
2018-07-07T09:19:26.550Z,58
2018-07-07T09:20:22.499Z,58
2018-07-07T09:21:21.689Z,57
2018-07-07T09:22:21.657Z,57
2018-07-07T09:23:22.894Z,57
2018-07-07T09:24:21.541Z,58
2018-07-07T09:25:21.555Z,58
2018-07-07T09:26:21.514Z,57
2018-07-07T09:27:21.471Z,57
2018-07-07T09:28:21.998Z,57
2018-07-07T09:29:21.499Z,58
2018-07-07T09:30:21.430Z,58
2018-07-07T09:31:21.481Z,58
2018-07-07T09:32:22.195Z,58
2018-07-07T09:33:23.450Z,58
2018-07-07T09:34:21.763Z,58
2018-07-07T09:35:21.783Z,58
2018-07-07T09:36:21.664Z,57
2018-07-07T09:37:21.591Z,57
2018-07-07T09:38:21.561Z,57
2018-07-07T09:39:21.602Z,57
2018-07-07T09:40:21.501Z,57
2018-07-07T09:41:21.469Z,59
2018-07-07T09:42:21.657Z,59
2018-07-07T09:43:21.597Z,59
2018-07-07T09:44:21.663Z,57
2018-07-07T09:45:21.640Z,57
2018-07-07T09:46:21.731Z,57
2018-07-07T09:47:21.710Z,57
2018-07-07T09:48:21.682Z,57
2018-07-07T09:49:21.501Z,57
2018-07-07T09:50:21.595Z,57
2018-07-07T09:51:21.545Z,57
2018-07-07T09:52:21.785Z,59
2018-07-07T09:53:21.601Z,59
2018-07-07T09:54:21.511Z,57
2018-07-07T09:55:21.670Z,57
2018-07-07T09:56:22.294Z,57
2018-07-07T09:57:21.671Z,60
2018-07-07T09:58:21.659Z,60
2018-07-07T09:59:21.527Z,57
2018-07-07T10:00:21.609Z,57
2018-07-07T10:01:21.858Z,57
2018-07-07T10:02:21.662Z,59
2018-07-07T10:03:21.530Z,59
2018-07-07T10:04:21.568Z,58
2018-07-07T10:05:21.548Z,58
2018-07-07T10:06:21.667Z,58
2018-07-07T10:07:21.661Z,58
2018-07-07T10:08:21.524Z,58
2018-07-07T10:09:21.469Z,58
2018-07-07T10:10:21.619Z,58
2018-07-07T10:11:21.615Z,58
2018-07-07T10:12:21.753Z,57
2018-07-07T10:13:21.702Z,57
2018-07-07T10:14:22.151Z,57
2018-07-07T10:15:21.564Z,57
2018-07-07T10:16:21.665Z,57
2018-07-07T10:17:21.618Z,56
2018-07-07T10:18:21.515Z,56
2018-07-07T10:19:22.186Z,56
2018-07-07T10:20:21.702Z,57
2018-07-07T10:21:21.523Z,57
2018-07-07T10:22:22.202Z,56
2018-07-07T10:23:21.719Z,56
2018-07-07T10:24:21.684Z,56
2018-07-07T10:25:21.640Z,56
2018-07-07T10:26:22.426Z,56
2018-07-07T10:27:21.689Z,57
2018-07-07T10:28:21.607Z,57
2018-07-07T10:29:21.805Z,57
2018-07-07T10:30:21.694Z,58
2018-07-07T10:31:21.642Z,58
2018-07-07T10:32:22.253Z,57
2018-07-07T10:33:21.563Z,57
2018-07-07T10:34:21.698Z,57
2018-07-07T10:35:21.722Z,56
2018-07-07T10:36:21.657Z,56
2018-07-07T10:37:21.638Z,57
2018-07-07T10:38:21.746Z,57
2018-07-07T10:39:23.341Z,57
2018-07-07T10:40:21.800Z,57
2018-07-07T10:41:21.505Z,57
2018-07-07T10:42:21.553Z,57
2018-07-07T10:43:21.600Z,57
2018-07-07T10:44:21.484Z,57
2018-07-07T10:45:21.482Z,57
2018-07-07T10:46:21.527Z,57
2018-07-07T10:47:21.778Z,58
2018-07-07T10:48:21.543Z,58
2018-07-07T10:49:21.551Z,58
2018-07-07T10:50:21.583Z,55
2018-07-07T10:51:21.499Z,55
2018-07-07T10:52:21.493Z,55
2018-07-07T10:53:21.561Z,56
2018-07-07T10:54:21.558Z,56
2018-07-07T10:55:21.598Z,56
2018-07-07T10:56:21.574Z,56
2018-07-07T10:57:21.561Z,56
2018-07-07T10:58:22.283Z,56
2018-07-07T10:59:23.730Z,56
2018-07-07T11:00:22.961Z,56
2018-07-07T11:02:23.463Z,56
2018-07-07T11:03:21.949Z,58
2018-07-07T11:04:22.053Z,58
2018-07-07T11:05:21.514Z,57
2018-07-07T11:06:21.582Z,57
2018-07-07T11:08:23.441Z,54
2018-07-07T11:10:22.912Z,56
2018-07-07T11:11:22.061Z,56
2018-07-07T11:12:22.868Z,56
2018-07-07T11:13:23.393Z,57
2018-07-07T11:14:22.381Z,57
2018-07-07T11:15:22.317Z,57
2018-07-07T11:16:22.475Z,57
2018-07-07T11:17:22.078Z,57
2018-07-07T11:18:22.531Z,56
2018-07-07T11:19:22.027Z,56
2018-07-07T11:20:23.618Z,56
2018-07-07T11:21:22.640Z,54
2018-07-07T11:22:21.537Z,54
2018-07-07T11:23:22.773Z,54
2018-07-07T11:24:22.057Z,54
2018-07-07T11:25:22.321Z,54
2018-07-07T11:26:22.081Z,56
2018-07-07T11:28:22.286Z,54
2018-07-07T11:29:21.580Z,54
2018-07-07T11:30:21.620Z,54
2018-07-07T11:31:24.581Z,54
2018-07-07T11:32:23.773Z,54
2018-07-07T11:33:23.498Z,53
2018-07-07T11:34:23.144Z,53
2018-07-07T11:35:22.742Z,53
2018-07-07T11:36:21.687Z,53
2018-07-07T11:37:21.645Z,53
2018-07-07T11:38:21.621Z,55
2018-07-07T11:39:21.743Z,55
2018-07-07T11:41:22.105Z,54
2018-07-07T11:42:22.845Z,54
2018-07-07T11:43:24.049Z,54
2018-07-07T11:44:22.763Z,54
2018-07-07T11:45:22.890Z,54
2018-07-07T11:46:24.390Z,55
2018-07-07T11:47:22.952Z,55
2018-07-07T11:48:22.674Z,56
2018-07-07T11:49:23.594Z,56
2018-07-07T11:50:24.191Z,56
2018-07-07T11:51:22.956Z,57
2018-07-07T11:52:22.753Z,57
2018-07-07T11:53:23.273Z,57
2018-07-07T11:54:22.320Z,55
2018-07-07T11:55:23.125Z,55
2018-07-07T11:56:21.689Z,54
2018-07-07T11:57:21.677Z,54
2018-07-07T11:58:21.584Z,54
2018-07-07T11:59:21.632Z,53
2018-07-07T12:00:21.743Z,53
2018-07-07T12:01:21.682Z,52
2018-07-07T12:02:21.828Z,52
2018-07-07T12:03:21.701Z,52
2018-07-07T12:04:21.654Z,51
2018-07-07T12:05:21.645Z,51
2018-07-07T12:06:21.773Z,54
2018-07-07T12:07:21.633Z,54
2018-07-07T12:08:21.945Z,54
2018-07-07T12:09:21.731Z,54
2018-07-07T12:10:21.701Z,54
2018-07-07T12:11:21.733Z,52
2018-07-07T12:12:21.767Z,52
2018-07-07T12:13:22.302Z,52
2018-07-07T12:14:21.637Z,52
2018-07-07T12:15:21.768Z,52
2018-07-07T12:16:21.865Z,52
2018-07-07T12:17:21.779Z,52
2018-07-07T12:18:21.765Z,52
2018-07-07T12:19:21.773Z,50
2018-07-07T12:20:21.818Z,50
2018-07-07T12:21:21.859Z,50
2018-07-07T12:22:22.424Z,52
2018-07-07T12:23:21.695Z,52
2018-07-07T12:24:21.731Z,51
2018-07-07T12:25:21.724Z,51
2018-07-07T12:26:21.798Z,51
2018-07-07T12:27:21.756Z,53
2018-07-07T12:28:21.789Z,53
2018-07-07T12:29:21.818Z,52
2018-07-07T12:30:21.685Z,52
2018-07-07T12:31:21.749Z,52
2018-07-07T12:32:21.799Z,53
2018-07-07T12:33:21.719Z,53
2018-07-07T12:34:21.826Z,53
2018-07-07T12:35:21.788Z,53
2018-07-07T12:36:21.801Z,53
2018-07-07T12:37:21.779Z,49
2018-07-07T12:38:21.810Z,49
2018-07-07T12:39:21.748Z,54
2018-07-07T12:40:21.788Z,54
2018-07-07T12:41:21.854Z,54
2018-07-07T12:42:21.745Z,53
2018-07-07T12:43:21.687Z,53
2018-07-07T12:44:21.828Z,52
2018-07-07T12:45:21.819Z,52
2018-07-07T12:46:21.872Z,52
2018-07-07T12:47:21.753Z,50
2018-07-07T12:48:21.851Z,50
2018-07-07T12:51:02.627Z,48
2018-07-07T12:51:12.550Z,48
2018-07-07T12:52:12.604Z,50
2018-07-07T12:53:12.612Z,50
2018-07-07T12:54:12.653Z,50
2018-07-07T12:55:12.622Z,48
2018-07-07T12:56:12.536Z,48
2018-07-07T12:57:12.654Z,48
2018-07-07T12:58:12.632Z,48
2018-07-07T12:59:12.518Z,48
2018-07-07T13:01:25.125Z,51
2018-07-07T13:02:25.100Z,52
2018-07-07T13:03:25.005Z,52
2018-07-07T13:04:25.108Z,52
2018-07-07T13:05:25.133Z,51
2018-07-07T13:06:25.251Z,51
2018-07-07T13:07:25.171Z,50
2018-07-07T13:08:25.150Z,50
2018-07-07T13:09:25.151Z,50
2018-07-07T13:10:25.123Z,50
2018-07-07T13:11:25.701Z,50
2018-07-07T13:12:25.092Z,52
2018-07-07T13:13:25.034Z,52
2018-07-07T13:14:25.112Z,52
2018-07-07T13:15:25.096Z,52
2018-07-07T13:16:25.061Z,52
2018-07-07T13:17:25.652Z,51
2018-07-07T13:18:25.062Z,51
2018-07-07T13:19:25.072Z,51
2018-07-07T13:20:25.077Z,51
2018-07-07T13:21:25.751Z,51
2018-07-07T13:22:25.125Z,51
2018-07-07T13:23:25.157Z,51
2018-07-07T13:24:25.122Z,51
2018-07-07T13:25:25.073Z,51
2018-07-07T13:26:25.094Z,51
2018-07-07T13:27:25.094Z,51
2018-07-07T13:28:25.137Z,51
2018-07-07T13:29:25.165Z,51
2018-07-07T13:30:25.266Z,50
2018-07-07T13:31:25.254Z,50
2018-07-07T13:32:25.220Z,50
2018-07-07T13:33:25.482Z,51
2018-07-07T13:34:25.210Z,51
2018-07-07T13:35:25.284Z,48
2018-07-07T13:36:25.189Z,48
2018-07-07T13:37:25.241Z,48
2018-07-07T13:38:25.190Z,48
2018-07-07T13:39:25.187Z,48
2018-07-07T13:40:25.279Z,49
2018-07-07T13:41:25.179Z,49
2018-07-07T13:42:25.153Z,49
2018-07-07T13:43:25.160Z,48
2018-07-07T13:44:25.284Z,48
2018-07-07T13:45:25.243Z,49
2018-07-07T13:46:25.145Z,49
2018-07-07T13:47:25.204Z,49
2018-07-07T13:48:25.187Z,48
2018-07-07T13:49:25.183Z,48
2018-07-07T13:50:25.164Z,48
2018-07-07T13:51:25.316Z,48
2018-07-07T13:52:25.127Z,48
2018-07-07T13:53:25.168Z,48
2018-07-07T13:54:25.197Z,48
2018-07-07T13:55:25.244Z,48
2018-07-07T13:56:25.187Z,48
2018-07-07T13:57:25.183Z,48
2018-07-07T13:58:25.270Z,48
2018-07-07T13:59:25.130Z,48
2018-07-07T14:00:25.749Z,48
2018-07-07T14:01:25.390Z,50
2018-07-07T14:02:25.287Z,50
2018-07-07T14:03:25.206Z,48
2018-07-07T14:04:25.773Z,48
2018-07-07T14:05:25.311Z,48
2018-07-07T14:06:25.206Z,49
2018-07-07T14:07:26.016Z,49
2018-07-07T14:08:25.314Z,48
2018-07-07T14:09:25.263Z,48
2018-07-07T14:10:25.194Z,48
2018-07-07T14:11:25.236Z,47
2018-07-07T14:12:25.168Z,47
2018-07-07T14:13:25.190Z,48
2018-07-07T14:14:25.287Z,48
2018-07-07T14:15:25.325Z,48
2018-07-07T14:16:25.254Z,49
2018-07-07T14:17:25.306Z,49
2018-07-07T14:18:25.260Z,49
2018-07-07T14:19:25.185Z,49
2018-07-07T14:20:25.225Z,49
2018-07-07T14:21:25.218Z,50
2018-07-07T14:22:25.882Z,50
2018-07-07T14:23:25.274Z,48
2018-07-07T14:24:25.316Z,48
2018-07-07T14:25:25.276Z,48
2018-07-07T14:26:25.410Z,48
2018-07-07T14:27:25.319Z,48
2018-07-07T14:28:25.212Z,48
2018-07-07T14:29:25.224Z,47
2018-07-07T14:30:25.226Z,47
2018-07-07T14:31:25.225Z,48
2018-07-07T14:32:25.218Z,48
2018-07-07T14:33:25.286Z,48
2018-07-07T14:34:25.215Z,48
2018-07-07T14:35:26.401Z,48
2018-07-07T14:36:28.156Z,48
2018-07-07T14:37:25.195Z,48
2018-07-07T14:38:25.280Z,48
2018-07-07T14:39:25.223Z,47
2018-07-07T14:40:25.548Z,47
2018-07-07T14:41:25.236Z,47
2018-07-07T14:42:25.283Z,47
2018-07-07T14:43:25.201Z,47
2018-07-07T14:44:25.336Z,49
2018-07-07T14:45:25.318Z,49
2018-07-07T14:46:25.932Z,50
2018-07-07T14:47:25.366Z,50
2018-07-07T14:48:25.254Z,50
2018-07-07T14:49:25.272Z,48
2018-07-07T14:50:25.930Z,48
2018-07-07T14:51:25.339Z,47
2018-07-07T14:52:25.311Z,47
2018-07-07T14:53:25.999Z,47
2018-07-07T14:54:26.357Z,47
2018-07-07T14:55:25.316Z,47
2018-07-07T14:56:25.954Z,47
2018-07-07T14:57:25.287Z,47
2018-07-07T14:58:25.348Z,47
2018-07-07T14:59:25.371Z,47
2018-07-07T15:00:25.376Z,47